Аэропорт: Уйташ. Махачкала

ICAO: URML

METAR:
2019/01/21 23:00
URML 212300Z 29003MPS 5000 BR NSC M00/M02 Q1014 R32/010070 TEMPO 1000 BR BKN005 OVC011 RMK QFE760/1014
METAR:
2018/10/17 18:00
TAF URML 171700Z 1718/1803 15005G10MPS 6000 SCT011 BKN020 
      TEMPO 1718/1724 22003G10MPS 3100 BR SCT007 BKN011